Springfield, MO

11:07 PM CDT on August 27, 2014 (GMT -0500)
Springfield-Branson Regional | Change Station
CLOSE
Current Station
Airport
Location: Springfield,
Elevation: 1280 ft
Nearby Weather Stations

Elev 1280 ft 37.24 °N, 93.39 °W | Updated 15 minutes ago

Clear
Clear
79 °F
Feels Like 79 °F
N
8
Wind Variable Wind from SE

Today
High -- | Low -- °F
--% Chance of Precip.
Yesterday
High -- | Low -- °F
Precip. -- in
6:39 AM 7:48 PM
Waxing Crescent, 6% visible
Pressure 30.02 in
Visibility 10.0 miles
Clouds Clear
Dew Point 68 °F
Humidity 69%
Rainfall 0.00 in
Snow Depth Not available.
UV 0 out of 12
Pollen 10.90 out of 12
Ozone Good
PM2.5 Moderate
Flu Activity Not available.
METAR KSGF 280352Z 13007KT 10SM CLR 26/20 A3007 RMK AO2 SLP166 T02610200

More Conditions Fewer Conditions

Pressure 30.02 in
Visibility 10.0 miles
Clouds Clear
Dew Point 68 °F
Humidity 69%
Rainfall 0.00 in
Snow Depth Not available.
UV 0 out of 12
Pollen 10.90 out of 12
Ozone Good
PM2.5 Moderate
Flu Activity Not available.
METAR KSGF 280352Z 13007KT 10SM CLR 26/20 A3007 RMK AO2 SLP166 T02610200

More Conditions Fewer Conditions

10-Day Weather Forecast

Almanac

Astronomy

Aug. 27, 2014 Rise Set
Actual Time 6:39 AM CDT 7:48 PM CDT
Civil Twilight 6:12 AM CDT 8:15 PM CDT
Nautical Twilight 5:40 AM CDT 8:47 PM CDT
Astronomical Twilight 5:07 AM CDT 9:20 PM CDT
Moon 8:32 AM CDT (8/27) 8:45 PM CDT (8/27)
Length of Visible Light 14h 02m
Length of Day
13h 09m
Tomorrow will be 2m 13s shorter.
Waxing Crescent, 6% of the Moon is Illuminated
Aug 28
Waxing Crescent
Sep 2
First Quarter
Sep 8
Full
Sep 15
Last Quarter
Sep 24
New

Today's Extremes

State Highs State Lows

Community

WunderPhotos

Upload Photos

1,747,900 photos uploaded!

Nearby

Air Quality

  Air Quality AQ Index Pollutant
Yesterday Good
PM10
Yesterday Good
OZONE
Current Moderate
PM2.5
Current Good
OZONE
Wednesday Moderate
OZONE
Wednesday Moderate
PM2.5
Thursday Moderate
OZONE
Thursday Moderate
PM2.5
Friday Moderate
PM2.5
Friday Good
OZONE
Saturday Moderate
PM2.5
Saturday Good
OZONE
Sunday Good
OZONE
Sunday Good
PM2.5
Monday Good
OZONE
Monday Good
PM2.5

Snow Depth

Station Depth Elevation
No new snow has been reported.

Earthquake Activity

City Distance Mag. Time & Date
No recent earthquake activity has been reported nearby.
Minimum magnitude displayed is 2.5.

Coastal Water Temperatures

Place Temperature
No Stations Reporting

Nearby Weather Stations